M/V Humpback — WCY3381 — position and weather

sailwx.info

Track history (hours):
 
Tides and Currents Weather Stations Pressure Air Temp Water Temp Dewpoint Dewpoint Depression Visibility Wind Speed Wind Dir Waves Ship Positions

M/V Humpback

Owner: R W MILLER ENTERPRISES INC, FRIDAY HARBOR, WA. More information available from US FCC via Universal Licensing System and Coast Guard Vessel Documentation Center.

Last reported at 2015-May-30 15:14 UTC. Time now 2015-May-30 16:32 UTC.
Position N 48°37' W 123°09'.

Length 16 m.

Type: Passenger vessel. MMSI: 367350790.

Date/timePositionNaut miles runAvg speedWind from/ knotsBaromVisibWave heightAir tempDewpointWater temp
2015-May-30 15:14N 48°37' W 123°09'0 0.0
2015-May-30 11:38N 48°37' W 123°09'0 0.0
2015-May-30 11:23N 48°37' W 123°09'0 0.0
2015-May-30 08:17N 48°37' W 123°09'0 0.0
2015-May-30 07:17N 48°37' W 123°09'0 0.0
2015-May-30 03:59N 48°37' W 123°09'0 0.0
2015-May-30 02:08N 48°37' W 123°09'0 0.0
2015-May-30 01:08N 48°37' W 123°09'0 0.0
2015-May-29 22:32N 48°37' W 123°09'2 1.6
2015-May-29 21:02N 48°39' W 123°10'1 2.0
2015-May-29 20:27N 48°38' W 123°10'1 0.2
2015-May-29 12:49N 48°37' W 123°09'0 0.0
2015-May-29 11:58N 48°37' W 123°09'0 0.0
2015-May-28 07:05N 48°37' W 123°09'0 0.0
2015-May-28 06:05N 48°37' W 123°09'0 0.0
2015-May-28 02:59N 48°37' W 123°09'0 0.0
2015-May-28 02:29N 48°37' W 123°09'1 0.8
2015-May-28 00:48N 48°38' W 123°10'1 1.3
2015-May-27 23:48N 48°36' W 123°09'0 0.1
2015-May-27 18:35N 48°37' W 123°10'0 0.0
2015-May-26 23:33N 48°37' W 123°09'0 0.0
2015-May-26 23:18N 48°37' W 123°09'4 0.9
2015-May-26 19:13N 48°40' W 123°11'4 7.3
2015-May-26 18:42N 48°37' W 123°09'3 4.6
2015-May-26 17:56N 48°40' W 123°10'3 0.2
2015-May-26 02:50N 48°37' W 123°09'0 0.0
2015-May-26 02:20N 48°37' W 123°09'0 0.0
2015-May-25 22:59N 48°37' W 123°09'0 0.0
2015-May-25 00:23N 48°37' W 123°09'0 0.0
2015-May-24 05:47N 48°37' W 123°09'0 0.0
2015-May-24 00:41N 48°37' W 123°09'0 0.0
2015-May-24 00:26N 48°37' W 123°09'0 0.0
2015-May-23 22:05N 48°37' W 123°09'0 0.0
2015-May-23 20:59N 48°37' W 123°09'0 0.0
2015-May-23 20:29N 48°37' W 123°09'0 0.0
2015-May-23 18:53N 48°37' W 123°09'0 0.0
2015-May-23 17:08N 48°37' W 123°09'0 0.0
2015-May-23 16:32N 48°37' W 123°09'0 0.0
2015-May-23 10:44N 48°37' W 123°09'0 0.0
2015-May-23 10:14N 48°37' W 123°09'0 0.0
2015-May-22 21:38N 48°37' W 123°09'0 0.0
2015-May-22 13:18N 48°37' W 123°09'0 0.0
2015-May-22 12:12N 48°37' W 123°09'0 0.0
2015-May-21 04:03N 48°37' W 123°09'0 0.0
2015-May-21 02:12N 48°37' W 123°09'0 0.0
2015-May-20 22:55N 48°37' W 123°09'0 0.0
2015-May-20 22:10N 48°37' W 123°09'0 0.0
2015-May-20 20:26N 48°37' W 123°09'0 0.0
2015-May-20 19:19N 48°37' W 123°09'  
Track history (hours):
 
Tides and Currents Weather Stations Pressure Air Temp Water Temp Dewpoint Dewpoint Depression Visibility Wind Speed Wind Dir Waves Ship Positions

M/V Humpback

Owner: R W MILLER ENTERPRISES INC, FRIDAY HARBOR, WA. More information available from US FCC via Universal Licensing System and Coast Guard Vessel Documentation Center.

Last reported at 2015-May-30 15:14 UTC. Time now 2015-May-30 16:32 UTC.
Position N 48°37' W 123°09'.

Length 16 m.

Type: Passenger vessel. MMSI: 367350790.

Date/timePositionNaut miles runAvg speedWind from/ knotsBaromVisibWave heightAir tempDewpointWater temp
2015-May-30 15:14N 48°37' W 123°09'0 0.0
2015-May-30 11:38N 48°37' W 123°09'0 0.0
2015-May-30 11:23N 48°37' W 123°09'0 0.0
2015-May-30 08:17N 48°37' W 123°09'0 0.0
2015-May-30 07:17N 48°37' W 123°09'0 0.0
2015-May-30 03:59N 48°37' W 123°09'0 0.0
2015-May-30 02:08N 48°37' W 123°09'0 0.0
2015-May-30 01:08N 48°37' W 123°09'0 0.0
2015-May-29 22:32N 48°37' W 123°09'2 1.6
2015-May-29 21:02N 48°39' W 123°10'1 2.0
2015-May-29 20:27N 48°38' W 123°10'1 0.2
2015-May-29 12:49N 48°37' W 123°09'0 0.0
2015-May-29 11:58N 48°37' W 123°09'0 0.0
2015-May-28 07:05N 48°37' W 123°09'0 0.0
2015-May-28 06:05N 48°37' W 123°09'0 0.0
2015-May-28 02:59N 48°37' W 123°09'0 0.0
2015-May-28 02:29N 48°37' W 123°09'1 0.8
2015-May-28 00:48N 48°38' W 123°10'1 1.3
2015-May-27 23:48N 48°36' W 123°09'0 0.1
2015-May-27 18:35N 48°37' W 123°10'0 0.0
2015-May-26 23:33N 48°37' W 123°09'0 0.0
2015-May-26 23:18N 48°37' W 123°09'4 0.9
2015-May-26 19:13N 48°40' W 123°11'4 7.3
2015-May-26 18:42N 48°37' W 123°09'3 4.6
2015-May-26 17:56N 48°40' W 123°10'3 0.2
2015-May-26 02:50N 48°37' W 123°09'0 0.0
2015-May-26 02:20N 48°37' W 123°09'0 0.0
2015-May-25 22:59N 48°37' W 123°09'0 0.0
2015-May-25 00:23N 48°37' W 123°09'0 0.0
2015-May-24 05:47N 48°37' W 123°09'0 0.0
2015-May-24 00:41N 48°37' W 123°09'0 0.0
2015-May-24 00:26N 48°37' W 123°09'0 0.0
2015-May-23 22:05N 48°37' W 123°09'0 0.0
2015-May-23 20:59N 48°37' W 123°09'0 0.0
2015-May-23 20:29N 48°37' W 123°09'0 0.0
2015-May-23 18:53N 48°37' W 123°09'0 0.0
2015-May-23 17:08N 48°37' W 123°09'0 0.0
2015-May-23 16:32N 48°37' W 123°09'0 0.0
2015-May-23 10:44N 48°37' W 123°09'0 0.0
2015-May-23 10:14N 48°37' W 123°09'0 0.0
2015-May-22 21:38N 48°37' W 123°09'0 0.0
2015-May-22 13:18N 48°37' W 123°09'0 0.0
2015-May-22 12:12N 48°37' W 123°09'0 0.0
2015-May-21 04:03N 48°37' W 123°09'0 0.0
2015-May-21 02:12N 48°37' W 123°09'0 0.0
2015-May-20 22:55N 48°37' W 123°09'0 0.0
2015-May-20 22:10N 48°37' W 123°09'0 0.0
2015-May-20 20:26N 48°37' W 123°09'0 0.0
2015-May-20 19:19N 48°37' W 123°09'  

Dump ship's entire track history